sensor_id;sensor_type;location;lat;lon;timestamp;P1;durP1;ratioP1;P2;durP2;ratioP2
7527;SDS011;3805;49.006;8.514;2022-12-07T00:02:30;15.90;;;14.03;;
7527;SDS011;3805;49.006;8.514;2022-12-07T00:05:20;33.03;;;21.43;;
7527;SDS011;3805;49.006;8.514;2022-12-07T00:08:09;28.23;;;19.43;;
7527;SDS011;3805;49.006;8.514;2022-12-07T00:11:00;25.73;;;18.77;;
7527;SDS011;3805;49.006;8.514;2022-12-07T00:13:51;24.93;;;17.90;;
7527;SDS011;3805;49.006;8.514;2022-12-07T00:16:40;27.40;;;17.43;;
7527;SDS011;3805;49.006;8.514;2022-12-07T00:19:29;26.53;;;18.63;;
7527;SDS011;3805;49.006;8.514;2022-12-07T00:22:19;20.20;;;16.47;;
7527;SDS011;3805;49.006;8.514;2022-12-07T00:25:07;23.47;;;16.67;;
7527;SDS011;3805;49.006;8.514;2022-12-07T00:27:56;21.73;;;16.60;;
7527;SDS011;3805;49.006;8.514;2022-12-07T00:30:45;17.60;;;14.53;;
7527;SDS011;3805;49.006;8.514;2022-12-07T00:33:33;20.00;;;16.37;;
7527;SDS011;3805;49.006;8.514;2022-12-07T00:36:22;21.90;;;17.40;;
7527;SDS011;3805;49.006;8.514;2022-12-07T00:39:14;22.03;;;17.80;;
7527;SDS011;3805;49.006;8.514;2022-12-07T00:42:03;19.47;;;15.50;;
7527;SDS011;3805;49.006;8.514;2022-12-07T00:44:51;19.80;;;16.17;;
7527;SDS011;3805;49.006;8.514;2022-12-07T00:47:40;18.27;;;16.33;;
7527;SDS011;3805;49.006;8.514;2022-12-07T00:50:29;18.03;;;15.23;;
7527;SDS011;3805;49.006;8.514;2022-12-07T00:53:18;20.10;;;15.23;;
7527;SDS011;3805;49.006;8.514;2022-12-07T00:56:08;19.10;;;15.40;;
7527;SDS011;3805;49.006;8.514;2022-12-07T00:58:58;18.73;;;15.27;;
7527;SDS011;3805;49.006;8.514;2022-12-07T01:01:47;19.50;;;15.20;;
7527;SDS011;3805;49.006;8.514;2022-12-07T01:04:36;21.47;;;16.67;;
7527;SDS011;3805;49.006;8.514;2022-12-07T01:07:24;18.97;;;15.03;;
7527;SDS011;3805;49.006;8.514;2022-12-07T01:10:13;20.20;;;14.87;;
7527;SDS011;3805;49.006;8.514;2022-12-07T01:13:03;17.20;;;14.90;;
7527;SDS011;3805;49.006;8.514;2022-12-07T01:15:56;21.27;;;16.63;;
7527;SDS011;3805;49.006;8.514;2022-12-07T01:18:48;19.03;;;16.20;;
7527;SDS011;3805;49.006;8.514;2022-12-07T01:21:38;19.50;;;16.13;;
7527;SDS011;3805;49.006;8.514;2022-12-07T01:24:26;18.67;;;15.20;;
7527;SDS011;3805;49.006;8.514;2022-12-07T01:27:15;17.93;;;15.20;;
7527;SDS011;3805;49.006;8.514;2022-12-07T01:30:06;18.50;;;15.07;;
7527;SDS011;3805;49.006;8.514;2022-12-07T01:32:55;19.00;;;14.90;;
7527;SDS011;3805;49.006;8.514;2022-12-07T01:35:43;21.40;;;15.13;;
7527;SDS011;3805;49.006;8.514;2022-12-07T01:38:32;19.40;;;16.50;;
7527;SDS011;3805;49.006;8.514;2022-12-07T01:41:21;18.67;;;14.30;;
7527;SDS011;3805;49.006;8.514;2022-12-07T01:44:12;17.97;;;14.50;;
7527;SDS011;3805;49.006;8.514;2022-12-07T01:47:04;20.53;;;15.10;;
7527;SDS011;3805;49.006;8.514;2022-12-07T01:49:53;18.07;;;14.77;;
7527;SDS011;3805;49.006;8.514;2022-12-07T01:52:42;21.43;;;14.77;;
7527;SDS011;3805;49.006;8.514;2022-12-07T01:55:31;18.07;;;13.30;;
7527;SDS011;3805;49.006;8.514;2022-12-07T01:58:20;17.63;;;15.13;;
7527;SDS011;3805;49.006;8.514;2022-12-07T02:01:09;19.30;;;14.77;;
7527;SDS011;3805;49.006;8.514;2022-12-07T02:03:58;16.20;;;13.90;;
7527;SDS011;3805;49.006;8.514;2022-12-07T02:06:47;16.70;;;14.10;;
7527;SDS011;3805;49.006;8.514;2022-12-07T02:09:36;18.60;;;13.83;;
7527;SDS011;3805;49.006;8.514;2022-12-07T02:12:25;18.20;;;13.30;;
7527;SDS011;3805;49.006;8.514;2022-12-07T02:15:14;16.80;;;13.37;;
7527;SDS011;3805;49.006;8.514;2022-12-07T02:18:04;15.07;;;13.57;;
7527;SDS011;3805;49.006;8.514;2022-12-07T02:20:57;16.33;;;13.13;;
7527;SDS011;3805;49.006;8.514;2022-12-07T02:23:59;15.47;;;13.67;;
7527;SDS011;3805;49.006;8.514;2022-12-07T02:30:17;15.93;;;12.07;;
7527;SDS011;3805;49.006;8.514;2022-12-07T02:33:08;19.53;;;14.67;;
7527;SDS011;3805;49.006;8.514;2022-12-07T02:36:02;16.30;;;12.53;;
7527;SDS011;3805;49.006;8.514;2022-12-07T02:38:55;17.47;;;13.70;;
7527;SDS011;3805;49.006;8.514;2022-12-07T02:41:48;15.33;;;13.77;;
7527;SDS011;3805;49.006;8.514;2022-12-07T02:44:40;19.67;;;15.07;;
7527;SDS011;3805;49.006;8.514;2022-12-07T02:47:30;16.33;;;12.90;;
7527;SDS011;3805;49.006;8.514;2022-12-07T02:50:20;18.23;;;14.10;;
7527;SDS011;3805;49.006;8.514;2022-12-07T02:56:21;18.63;;;15.27;;
7527;SDS011;3805;49.006;8.514;2022-12-07T02:59:14;20.60;;;14.97;;
7527;SDS011;3805;49.006;8.514;2022-12-07T03:02:11;19.07;;;15.27;;
7527;SDS011;3805;49.006;8.514;2022-12-07T03:05:15;20.07;;;15.23;;
7527;SDS011;3805;49.006;8.514;2022-12-07T03:08:13;17.60;;;14.60;;
7527;SDS011;3805;49.006;8.514;2022-12-07T03:11:08;17.73;;;14.40;;
7527;SDS011;3805;49.006;8.514;2022-12-07T03:13:59;22.70;;;16.80;;
7527;SDS011;3805;49.006;8.514;2022-12-07T03:16:52;19.67;;;17.00;;
7527;SDS011;3805;49.006;8.514;2022-12-07T03:19:42;23.70;;;16.07;;
7527;SDS011;3805;49.006;8.514;2022-12-07T03:22:33;20.87;;;16.40;;
7527;SDS011;3805;49.006;8.514;2022-12-07T03:25:23;19.87;;;16.13;;
7527;SDS011;3805;49.006;8.514;2022-12-07T03:28:12;21.80;;;16.00;;
7527;SDS011;3805;49.006;8.514;2022-12-07T03:31:03;21.57;;;15.77;;
7527;SDS011;3805;49.006;8.514;2022-12-07T03:33:56;25.63;;;15.73;;
7527;SDS011;3805;49.006;8.514;2022-12-07T03:36:47;24.50;;;17.30;;
7527;SDS011;3805;49.006;8.514;2022-12-07T03:39:41;18.63;;;15.20;;
7527;SDS011;3805;49.006;8.514;2022-12-07T03:42:35;21.07;;;14.33;;
7527;SDS011;3805;49.006;8.514;2022-12-07T03:45:24;19.30;;;15.53;;
7527;SDS011;3805;49.006;8.514;2022-12-07T03:48:20;18.73;;;14.93;;
7527;SDS011;3805;49.006;8.514;2022-12-07T03:51:13;18.67;;;14.83;;
7527;SDS011;3805;49.006;8.514;2022-12-07T03:54:05;19.00;;;15.37;;
7527;SDS011;3805;49.006;8.514;2022-12-07T03:57:00;20.87;;;16.00;;
7527;SDS011;3805;49.006;8.514;2022-12-07T03:59:49;20.33;;;15.33;;
7527;SDS011;3805;49.006;8.514;2022-12-07T04:02:39;17.07;;;14.17;;
7527;SDS011;3805;49.006;8.514;2022-12-07T04:05:27;24.13;;;16.30;;
7527;SDS011;3805;49.006;8.514;2022-12-07T04:08:16;18.60;;;15.37;;
7527;SDS011;3805;49.006;8.514;2022-12-07T04:11:05;22.27;;;17.27;;
7527;SDS011;3805;49.006;8.514;2022-12-07T04:13:55;19.10;;;15.00;;
7527;SDS011;3805;49.006;8.514;2022-12-07T04:17:01;18.70;;;15.17;;
7527;SDS011;3805;49.006;8.514;2022-12-07T04:19:49;22.73;;;17.03;;
7527;SDS011;3805;49.006;8.514;2022-12-07T04:22:38;24.30;;;16.83;;
7527;SDS011;3805;49.006;8.514;2022-12-07T04:25:26;22.80;;;16.77;;
7527;SDS011;3805;49.006;8.514;2022-12-07T04:28:15;20.73;;;17.20;;
7527;SDS011;3805;49.006;8.514;2022-12-07T04:31:05;22.23;;;16.33;;
7527;SDS011;3805;49.006;8.514;2022-12-07T04:33:53;19.20;;;15.10;;
7527;SDS011;3805;49.006;8.514;2022-12-07T04:36:42;23.80;;;15.80;;
7527;SDS011;3805;49.006;8.514;2022-12-07T04:39:31;22.10;;;16.73;;
7527;SDS011;3805;49.006;8.514;2022-12-07T04:42:21;17.63;;;14.63;;
7527;SDS011;3805;49.006;8.514;2022-12-07T04:45:10;19.53;;;14.70;;
7527;SDS011;3805;49.006;8.514;2022-12-07T04:47:59;20.50;;;15.30;;
7527;SDS011;3805;49.006;8.514;2022-12-07T04:50:48;21.20;;;16.00;;
7527;SDS011;3805;49.006;8.514;2022-12-07T04:53:37;21.10;;;15.10;;
7527;SDS011;3805;49.006;8.514;2022-12-07T04:56:26;22.50;;;16.73;;
7527;SDS011;3805;49.006;8.514;2022-12-07T04:59:15;18.13;;;16.07;;
7527;SDS011;3805;49.006;8.514;2022-12-07T05:02:04;17.20;;;15.40;;
7527;SDS011;3805;49.006;8.514;2022-12-07T05:04:54;21.83;;;15.10;;
7527;SDS011;3805;49.006;8.514;2022-12-07T05:07:42;21.10;;;15.30;;
7527;SDS011;3805;49.006;8.514;2022-12-07T05:10:31;23.03;;;16.77;;
7527;SDS011;3805;49.006;8.514;2022-12-07T05:13:19;21.40;;;16.63;;
7527;SDS011;3805;49.006;8.514;2022-12-07T05:16:08;18.60;;;14.20;;
7527;SDS011;3805;49.006;8.514;2022-12-07T05:18:56;19.07;;;13.60;;
7527;SDS011;3805;49.006;8.514;2022-12-07T05:21:46;17.27;;;14.33;;
7527;SDS011;3805;49.006;8.514;2022-12-07T05:24:35;18.53;;;14.87;;
7527;SDS011;3805;49.006;8.514;2022-12-07T05:27:24;19.70;;;15.03;;
7527;SDS011;3805;49.006;8.514;2022-12-07T05:30:12;16.87;;;13.57;;
7527;SDS011;3805;49.006;8.514;2022-12-07T05:33:01;18.43;;;14.47;;
7527;SDS011;3805;49.006;8.514;2022-12-07T05:35:50;19.80;;;14.17;;
7527;SDS011;3805;49.006;8.514;2022-12-07T05:38:40;17.53;;;13.70;;
7527;SDS011;3805;49.006;8.514;2022-12-07T05:41:29;15.27;;;12.87;;
7527;SDS011;3805;49.006;8.514;2022-12-07T05:44:35;20.10;;;14.50;;
7527;SDS011;3805;49.006;8.514;2022-12-07T05:47:23;15.63;;;12.90;;
7527;SDS011;3805;49.006;8.514;2022-12-07T05:50:12;18.40;;;13.70;;
7527;SDS011;3805;49.006;8.514;2022-12-07T05:53:00;16.07;;;12.83;;
7527;SDS011;3805;49.006;8.514;2022-12-07T05:55:51;18.30;;;13.90;;
7527;SDS011;3805;49.006;8.514;2022-12-07T05:58:40;18.53;;;13.40;;
7527;SDS011;3805;49.006;8.514;2022-12-07T06:01:45;15.50;;;12.80;;
7527;SDS011;3805;49.006;8.514;2022-12-07T06:04:35;19.60;;;14.00;;
7527;SDS011;3805;49.006;8.514;2022-12-07T06:07:24;16.70;;;14.70;;
7527;SDS011;3805;49.006;8.514;2022-12-07T06:10:12;19.17;;;13.50;;
7527;SDS011;3805;49.006;8.514;2022-12-07T06:13:02;16.57;;;12.47;;
7527;SDS011;3805;49.006;8.514;2022-12-07T06:15:50;17.33;;;13.90;;
7527;SDS011;3805;49.006;8.514;2022-12-07T06:18:38;17.60;;;13.93;;
7527;SDS011;3805;49.006;8.514;2022-12-07T06:21:28;18.00;;;13.70;;
7527;SDS011;3805;49.006;8.514;2022-12-07T06:24:16;18.20;;;13.30;;
7527;SDS011;3805;49.006;8.514;2022-12-07T06:27:05;19.50;;;14.43;;
7527;SDS011;3805;49.006;8.514;2022-12-07T06:29:55;18.90;;;13.57;;
7527;SDS011;3805;49.006;8.514;2022-12-07T06:32:44;19.80;;;14.13;;
7527;SDS011;3805;49.006;8.514;2022-12-07T06:35:33;20.63;;;13.77;;
7527;SDS011;3805;49.006;8.514;2022-12-07T06:38:21;15.17;;;12.00;;
7527;SDS011;3805;49.006;8.514;2022-12-07T06:41:10;19.07;;;14.10;;
7527;SDS011;3805;49.006;8.514;2022-12-07T06:43:59;17.13;;;13.00;;
7527;SDS011;3805;49.006;8.514;2022-12-07T06:46:49;15.63;;;12.30;;
7527;SDS011;3805;49.006;8.514;2022-12-07T06:49:48;15.33;;;12.80;;
7527;SDS011;3805;49.006;8.514;2022-12-07T06:52:37;14.20;;;11.87;;
7527;SDS011;3805;49.006;8.514;2022-12-07T06:55:25;14.77;;;11.40;;
7527;SDS011;3805;49.006;8.514;2022-12-07T06:58:14;15.27;;;11.57;;
7527;SDS011;3805;49.006;8.514;2022-12-07T07:01:07;15.20;;;12.27;;
7527;SDS011;3805;49.006;8.514;2022-12-07T07:03:58;17.70;;;13.07;;
7527;SDS011;3805;49.006;8.514;2022-12-07T07:06:47;15.97;;;13.53;;
7527;SDS011;3805;49.006;8.514;2022-12-07T07:09:41;14.60;;;11.00;;
7527;SDS011;3805;49.006;8.514;2022-12-07T07:12:29;14.47;;;12.43;;
7527;SDS011;3805;49.006;8.514;2022-12-07T07:15:18;17.00;;;12.30;;
7527;SDS011;3805;49.006;8.514;2022-12-07T07:18:07;13.60;;;12.17;;
7527;SDS011;3805;49.006;8.514;2022-12-07T07:20:57;14.67;;;11.73;;
7527;SDS011;3805;49.006;8.514;2022-12-07T07:23:46;15.60;;;12.03;;
7527;SDS011;3805;49.006;8.514;2022-12-07T07:26:34;14.87;;;11.60;;
7527;SDS011;3805;49.006;8.514;2022-12-07T07:29:23;14.50;;;11.80;;
7527;SDS011;3805;49.006;8.514;2022-12-07T07:32:12;14.10;;;11.27;;
7527;SDS011;3805;49.006;8.514;2022-12-07T07:35:00;16.77;;;10.67;;
7527;SDS011;3805;49.006;8.514;2022-12-07T07:37:50;15.57;;;12.00;;
7527;SDS011;3805;49.006;8.514;2022-12-07T07:40:39;13.53;;;11.40;;
7527;SDS011;3805;49.006;8.514;2022-12-07T07:43:28;13.37;;;11.93;;
7527;SDS011;3805;49.006;8.514;2022-12-07T07:46:16;16.63;;;12.10;;
7527;SDS011;3805;49.006;8.514;2022-12-07T07:49:05;15.30;;;12.40;;
7527;SDS011;3805;49.006;8.514;2022-12-07T07:51:54;13.63;;;10.07;;
7527;SDS011;3805;49.006;8.514;2022-12-07T07:54:44;17.00;;;12.70;;
7527;SDS011;3805;49.006;8.514;2022-12-07T07:57:33;15.87;;;12.03;;
7527;SDS011;3805;49.006;8.514;2022-12-07T08:00:21;13.47;;;11.27;;
7527;SDS011;3805;49.006;8.514;2022-12-07T08:03:11;16.13;;;11.90;;
7527;SDS011;3805;49.006;8.514;2022-12-07T08:05:59;14.67;;;11.20;;
7527;SDS011;3805;49.006;8.514;2022-12-07T08:08:50;12.90;;;10.33;;
7527;SDS011;3805;49.006;8.514;2022-12-07T08:11:39;13.10;;;10.87;;
7527;SDS011;3805;49.006;8.514;2022-12-07T08:14:28;13.63;;;11.80;;
7527;SDS011;3805;49.006;8.514;2022-12-07T08:17:17;15.80;;;11.83;;
7527;SDS011;3805;49.006;8.514;2022-12-07T08:20:07;13.40;;;10.70;;
7527;SDS011;3805;49.006;8.514;2022-12-07T08:22:56;17.87;;;12.37;;
7527;SDS011;3805;49.006;8.514;2022-12-07T08:25:45;15.50;;;11.27;;
7527;SDS011;3805;49.006;8.514;2022-12-07T08:28:35;15.93;;;11.10;;
7527;SDS011;3805;49.006;8.514;2022-12-07T08:31:24;14.03;;;11.10;;
7527;SDS011;3805;49.006;8.514;2022-12-07T08:34:15;14.97;;;11.47;;
7527;SDS011;3805;49.006;8.514;2022-12-07T08:37:03;15.10;;;12.60;;
7527;SDS011;3805;49.006;8.514;2022-12-07T08:39:52;14.40;;;11.47;;
7527;SDS011;3805;49.006;8.514;2022-12-07T08:42:41;16.10;;;10.93;;
7527;SDS011;3805;49.006;8.514;2022-12-07T08:45:32;14.87;;;11.33;;
7527;SDS011;3805;49.006;8.514;2022-12-07T08:48:22;13.43;;;11.50;;
7527;SDS011;3805;49.006;8.514;2022-12-07T08:51:11;13.37;;;10.70;;
7527;SDS011;3805;49.006;8.514;2022-12-07T08:54:00;14.17;;;11.23;;
7527;SDS011;3805;49.006;8.514;2022-12-07T08:56:50;12.50;;;10.30;;
7527;SDS011;3805;49.006;8.514;2022-12-07T08:59:45;13.87;;;10.10;;
7527;SDS011;3805;49.006;8.514;2022-12-07T09:02:35;13.47;;;10.87;;
7527;SDS011;3805;49.006;8.514;2022-12-07T09:05:24;13.60;;;10.80;;
7527;SDS011;3805;49.006;8.514;2022-12-07T09:08:14;17.50;;;12.20;;
7527;SDS011;3805;49.006;8.514;2022-12-07T09:11:02;16.10;;;10.57;;
7527;SDS011;3805;49.006;8.514;2022-12-07T09:13:52;13.70;;;10.30;;
7527;SDS011;3805;49.006;8.514;2022-12-07T09:16:41;14.97;;;12.03;;
7527;SDS011;3805;49.006;8.514;2022-12-07T09:19:30;12.43;;;11.13;;
7527;SDS011;3805;49.006;8.514;2022-12-07T09:22:19;13.57;;;11.20;;
7527;SDS011;3805;49.006;8.514;2022-12-07T09:25:07;16.60;;;12.00;;
7527;SDS011;3805;49.006;8.514;2022-12-07T09:27:56;14.30;;;10.70;;
7527;SDS011;3805;49.006;8.514;2022-12-07T09:30:45;14.57;;;11.50;;
7527;SDS011;3805;49.006;8.514;2022-12-07T09:33:55;14.30;;;11.30;;
7527;SDS011;3805;49.006;8.514;2022-12-07T09:36:45;13.40;;;10.57;;
7527;SDS011;3805;49.006;8.514;2022-12-07T09:39:34;16.00;;;12.27;;
7527;SDS011;3805;49.006;8.514;2022-12-07T09:42:27;13.17;;;9.97;;
7527;SDS011;3805;49.006;8.514;2022-12-07T09:45:18;11.53;;;9.27;;
7527;SDS011;3805;49.006;8.514;2022-12-07T09:48:11;13.53;;;11.93;;
7527;SDS011;3805;49.006;8.514;2022-12-07T09:51:09;15.30;;;11.47;;
7527;SDS011;3805;49.006;8.514;2022-12-07T09:54:11;13.20;;;10.47;;
7527;SDS011;3805;49.006;8.514;2022-12-07T09:57:00;13.50;;;10.60;;
7527;SDS011;3805;49.006;8.514;2022-12-07T09:59:49;16.77;;;10.73;;
7527;SDS011;3805;49.006;8.514;2022-12-07T10:02:38;14.30;;;10.70;;
7527;SDS011;3805;49.006;8.514;2022-12-07T10:05:30;15.60;;;11.80;;
7527;SDS011;3805;49.006;8.514;2022-12-07T10:08:20;14.23;;;10.33;;
7527;SDS011;3805;49.006;8.514;2022-12-07T10:11:11;11.60;;;9.83;;
7527;SDS011;3805;49.006;8.514;2022-12-07T10:14:10;13.03;;;11.37;;
7527;SDS011;3805;49.006;8.514;2022-12-07T10:17:00;14.03;;;11.33;;
7527;SDS011;3805;49.006;8.514;2022-12-07T10:19:48;14.90;;;12.00;;
7527;SDS011;3805;49.006;8.514;2022-12-07T10:22:37;14.07;;;11.20;;
7527;SDS011;3805;49.006;8.514;2022-12-07T10:25:27;12.33;;;10.53;;
7527;SDS011;3805;49.006;8.514;2022-12-07T10:28:20;12.47;;;9.40;;
7527;SDS011;3805;49.006;8.514;2022-12-07T10:31:15;13.60;;;10.20;;
7527;SDS011;3805;49.006;8.514;2022-12-07T10:34:12;11.63;;;10.43;;
7527;SDS011;3805;49.006;8.514;2022-12-07T10:37:15;13.20;;;10.10;;
7527;SDS011;3805;49.006;8.514;2022-12-07T10:40:10;16.47;;;11.33;;
7527;SDS011;3805;49.006;8.514;2022-12-07T10:43:17;16.57;;;11.00;;
7527;SDS011;3805;49.006;8.514;2022-12-07T10:49:41;18.27;;;11.23;;
7527;SDS011;3805;49.006;8.514;2022-12-07T10:52:58;15.20;;;11.13;;
7527;SDS011;3805;49.006;8.514;2022-12-07T10:55:56;16.10;;;11.10;;
7527;SDS011;3805;49.006;8.514;2022-12-07T10:58:57;13.07;;;11.40;;
7527;SDS011;3805;49.006;8.514;2022-12-07T11:01:54;12.80;;;11.03;;
7527;SDS011;3805;49.006;8.514;2022-12-07T11:04:49;13.53;;;10.97;;
7527;SDS011;3805;49.006;8.514;2022-12-07T11:07:45;13.60;;;10.93;;
7527;SDS011;3805;49.006;8.514;2022-12-07T11:10:44;12.53;;;11.20;;
7527;SDS011;3805;49.006;8.514;2022-12-07T11:13:40;12.40;;;10.73;;
7527;SDS011;3805;49.006;8.514;2022-12-07T11:16:44;13.93;;;10.17;;
7527;SDS011;3805;49.006;8.514;2022-12-07T11:19:49;14.10;;;10.33;;
7527;SDS011;3805;49.006;8.514;2022-12-07T11:22:49;13.17;;;10.37;;
7527;SDS011;3805;49.006;8.514;2022-12-07T11:25:42;14.30;;;10.33;;
7527;SDS011;3805;49.006;8.514;2022-12-07T11:28:41;13.17;;;10.70;;
7527;SDS011;3805;49.006;8.514;2022-12-07T11:31:45;14.30;;;10.97;;
7527;SDS011;3805;49.006;8.514;2022-12-07T11:34:43;12.33;;;10.60;;
7527;SDS011;3805;49.006;8.514;2022-12-07T11:37:37;15.40;;;11.57;;
7527;SDS011;3805;49.006;8.514;2022-12-07T11:40:33;10.80;;;9.60;;
7527;SDS011;3805;49.006;8.514;2022-12-07T11:43:24;16.37;;;11.20;;
7527;SDS011;3805;49.006;8.514;2022-12-07T11:46:15;17.20;;;11.10;;
7527;SDS011;3805;49.006;8.514;2022-12-07T11:49:07;13.90;;;11.30;;
7527;SDS011;3805;49.006;8.514;2022-12-07T11:52:01;13.47;;;10.70;;
7527;SDS011;3805;49.006;8.514;2022-12-07T11:54:51;12.67;;;10.83;;
7527;SDS011;3805;49.006;8.514;2022-12-07T11:57:41;14.27;;;11.00;;
7527;SDS011;3805;49.006;8.514;2022-12-07T12:00:32;16.20;;;10.27;;
7527;SDS011;3805;49.006;8.514;2022-12-07T12:03:22;14.43;;;11.00;;
7527;SDS011;3805;49.006;8.514;2022-12-07T12:06:17;18.90;;;11.13;;
7527;SDS011;3805;49.006;8.514;2022-12-07T12:09:10;16.20;;;11.87;;
7527;SDS011;3805;49.006;8.514;2022-12-07T12:12:28;16.50;;;11.40;;
7527;SDS011;3805;49.006;8.514;2022-12-07T12:15:48;19.67;;;12.47;;
7527;SDS011;3805;49.006;8.514;2022-12-07T12:18:58;15.00;;;12.17;;
7527;SDS011;3805;49.006;8.514;2022-12-07T12:21:53;19.13;;;12.77;;
7527;SDS011;3805;49.006;8.514;2022-12-07T12:24:46;17.30;;;13.00;;
7527;SDS011;3805;49.006;8.514;2022-12-07T12:27:37;18.63;;;12.37;;
7527;SDS011;3805;49.006;8.514;2022-12-07T12:30:32;16.77;;;13.10;;
7527;SDS011;3805;49.006;8.514;2022-12-07T12:33:23;17.00;;;13.20;;
7527;SDS011;3805;49.006;8.514;2022-12-07T12:36:20;16.90;;;13.57;;
7527;SDS011;3805;49.006;8.514;2022-12-07T12:39:13;18.50;;;14.20;;
7527;SDS011;3805;49.006;8.514;2022-12-07T12:42:05;17.10;;;13.93;;
7527;SDS011;3805;49.006;8.514;2022-12-07T12:45:19;16.60;;;13.43;;
7527;SDS011;3805;49.006;8.514;2022-12-07T12:54:24;17.13;;;12.03;;
7527;SDS011;3805;49.006;8.514;2022-12-07T12:57:17;17.03;;;11.77;;
7527;SDS011;3805;49.006;8.514;2022-12-07T13:00:15;18.23;;;12.33;;
7527;SDS011;3805;49.006;8.514;2022-12-07T13:03:05;17.23;;;12.87;;
7527;SDS011;3805;49.006;8.514;2022-12-07T13:06:19;18.20;;;13.63;;
7527;SDS011;3805;49.006;8.514;2022-12-07T13:09:20;20.80;;;12.77;;
7527;SDS011;3805;49.006;8.514;2022-12-07T13:12:14;18.43;;;13.63;;
7527;SDS011;3805;49.006;8.514;2022-12-07T13:15:19;19.83;;;13.73;;
7527;SDS011;3805;49.006;8.514;2022-12-07T13:18:23;23.60;;;14.33;;
7527;SDS011;3805;49.006;8.514;2022-12-07T13:24:39;18.17;;;12.97;;
7527;SDS011;3805;49.006;8.514;2022-12-07T13:27:29;19.47;;;12.13;;
7527;SDS011;3805;49.006;8.514;2022-12-07T13:30:19;17.80;;;12.93;;
7527;SDS011;3805;49.006;8.514;2022-12-07T13:33:08;17.27;;;13.87;;
7527;SDS011;3805;49.006;8.514;2022-12-07T13:35:57;15.80;;;13.17;;
7527;SDS011;3805;49.006;8.514;2022-12-07T13:38:51;17.17;;;13.37;;
7527;SDS011;3805;49.006;8.514;2022-12-07T13:41:45;19.10;;;13.00;;
7527;SDS011;3805;49.006;8.514;2022-12-07T13:44:39;21.90;;;13.80;;
7527;SDS011;3805;49.006;8.514;2022-12-07T13:47:31;19.20;;;13.27;;
7527;SDS011;3805;49.006;8.514;2022-12-07T13:50:23;17.80;;;14.60;;
7527;SDS011;3805;49.006;8.514;2022-12-07T13:53:13;20.60;;;12.90;;
7527;SDS011;3805;49.006;8.514;2022-12-07T13:56:02;20.50;;;12.97;;
7527;SDS011;3805;49.006;8.514;2022-12-07T13:58:51;16.20;;;12.83;;
7527;SDS011;3805;49.006;8.514;2022-12-07T14:01:41;19.60;;;13.23;;
7527;SDS011;3805;49.006;8.514;2022-12-07T14:04:34;18.97;;;13.27;;
7527;SDS011;3805;49.006;8.514;2022-12-07T14:07:24;17.67;;;14.40;;
7527;SDS011;3805;49.006;8.514;2022-12-07T14:10:22;17.13;;;13.10;;
7527;SDS011;3805;49.006;8.514;2022-12-07T14:13:22;18.50;;;13.80;;
7527;SDS011;3805;49.006;8.514;2022-12-07T14:16:18;17.43;;;13.23;;
7527;SDS011;3805;49.006;8.514;2022-12-07T14:22:36;18.73;;;13.87;;
7527;SDS011;3805;49.006;8.514;2022-12-07T14:25:25;19.80;;;14.77;;
7527;SDS011;3805;49.006;8.514;2022-12-07T14:28:24;17.90;;;14.13;;
7527;SDS011;3805;49.006;8.514;2022-12-07T14:31:14;21.30;;;16.20;;
7527;SDS011;3805;49.006;8.514;2022-12-07T14:34:12;19.87;;;13.57;;
7527;SDS011;3805;49.006;8.514;2022-12-07T14:37:03;22.20;;;15.03;;
7527;SDS011;3805;49.006;8.514;2022-12-07T14:39:52;19.97;;;14.37;;
7527;SDS011;3805;49.006;8.514;2022-12-07T14:42:42;16.20;;;13.30;;
7527;SDS011;3805;49.006;8.514;2022-12-07T14:45:30;17.90;;;13.97;;
7527;SDS011;3805;49.006;8.514;2022-12-07T14:48:19;19.50;;;14.50;;
7527;SDS011;3805;49.006;8.514;2022-12-07T14:51:27;19.93;;;15.13;;
7527;SDS011;3805;49.006;8.514;2022-12-07T14:54:37;15.07;;;12.63;;
7527;SDS011;3805;49.006;8.514;2022-12-07T14:57:26;15.37;;;12.93;;
7527;SDS011;3805;49.006;8.514;2022-12-07T15:00:15;16.63;;;12.90;;
7527;SDS011;3805;49.006;8.514;2022-12-07T15:03:04;18.80;;;12.80;;
7527;SDS011;3805;49.006;8.514;2022-12-07T15:05:53;16.80;;;13.37;;
7527;SDS011;3805;49.006;8.514;2022-12-07T15:08:42;18.10;;;12.93;;
7527;SDS011;3805;49.006;8.514;2022-12-07T15:11:32;19.57;;;15.10;;
7527;SDS011;3805;49.006;8.514;2022-12-07T15:14:26;16.30;;;11.97;;
7527;SDS011;3805;49.006;8.514;2022-12-07T15:17:14;14.93;;;11.87;;
7527;SDS011;3805;49.006;8.514;2022-12-07T15:20:17;17.60;;;12.90;;
7527;SDS011;3805;49.006;8.514;2022-12-07T15:23:06;16.53;;;12.87;;
7527;SDS011;3805;49.006;8.514;2022-12-07T15:25:55;17.13;;;13.87;;
7527;SDS011;3805;49.006;8.514;2022-12-07T15:28:44;20.47;;;13.53;;
7527;SDS011;3805;49.006;8.514;2022-12-07T15:31:33;17.10;;;12.97;;
7527;SDS011;3805;49.006;8.514;2022-12-07T15:34:42;17.47;;;12.97;;
7527;SDS011;3805;49.006;8.514;2022-12-07T15:37:30;13.27;;;11.87;;
7527;SDS011;3805;49.006;8.514;2022-12-07T15:40:19;17.57;;;12.13;;
7527;SDS011;3805;49.006;8.514;2022-12-07T15:43:08;14.50;;;12.30;;
7527;SDS011;3805;49.006;8.514;2022-12-07T15:46:18;16.03;;;13.40;;
7527;SDS011;3805;49.006;8.514;2022-12-07T15:49:06;18.47;;;13.83;;
7527;SDS011;3805;49.006;8.514;2022-12-07T15:51:58;17.00;;;14.27;;
7527;SDS011;3805;49.006;8.514;2022-12-07T15:54:46;15.03;;;13.37;;
7527;SDS011;3805;49.006;8.514;2022-12-07T15:57:36;17.67;;;13.70;;
7527;SDS011;3805;49.006;8.514;2022-12-07T16:00:25;17.40;;;12.53;;
7527;SDS011;3805;49.006;8.514;2022-12-07T16:03:15;17.37;;;14.03;;
7527;SDS011;3805;49.006;8.514;2022-12-07T16:06:03;17.43;;;14.10;;
7527;SDS011;3805;49.006;8.514;2022-12-07T16:08:52;17.13;;;13.47;;
7527;SDS011;3805;49.006;8.514;2022-12-07T16:11:41;16.70;;;14.27;;
7527;SDS011;3805;49.006;8.514;2022-12-07T16:14:29;18.00;;;13.03;;
7527;SDS011;3805;49.006;8.514;2022-12-07T16:17:20;18.53;;;13.53;;
7527;SDS011;3805;49.006;8.514;2022-12-07T16:20:10;15.90;;;12.67;;
7527;SDS011;3805;49.006;8.514;2022-12-07T16:22:59;17.00;;;12.40;;
7527;SDS011;3805;49.006;8.514;2022-12-07T16:25:47;16.20;;;13.00;;
7527;SDS011;3805;49.006;8.514;2022-12-07T16:28:36;15.67;;;12.77;;
7527;SDS011;3805;49.006;8.514;2022-12-07T16:31:26;19.67;;;13.70;;
7527;SDS011;3805;49.006;8.514;2022-12-07T16:34:15;16.90;;;13.03;;
7527;SDS011;3805;49.006;8.514;2022-12-07T16:37:05;16.33;;;13.70;;
7527;SDS011;3805;49.006;8.514;2022-12-07T16:39:54;15.13;;;12.97;;
7527;SDS011;3805;49.006;8.514;2022-12-07T16:42:42;16.33;;;13.00;;
7527;SDS011;3805;49.006;8.514;2022-12-07T16:45:31;17.47;;;11.83;;
7527;SDS011;3805;49.006;8.514;2022-12-07T16:48:20;17.73;;;12.47;;
7527;SDS011;3805;49.006;8.514;2022-12-07T16:51:09;13.87;;;11.53;;
7527;SDS011;3805;49.006;8.514;2022-12-07T16:53:59;16.30;;;12.20;;
7527;SDS011;3805;49.006;8.514;2022-12-07T16:56:48;17.23;;;12.20;;
7527;SDS011;3805;49.006;8.514;2022-12-07T16:59:36;16.57;;;12.23;;
7527;SDS011;3805;49.006;8.514;2022-12-07T17:02:25;16.43;;;12.97;;
7527;SDS011;3805;49.006;8.514;2022-12-07T17:05:13;14.83;;;11.83;;
7527;SDS011;3805;49.006;8.514;2022-12-07T17:08:02;18.47;;;13.33;;
7527;SDS011;3805;49.006;8.514;2022-12-07T17:10:52;19.50;;;13.87;;
7527;SDS011;3805;49.006;8.514;2022-12-07T17:13:41;17.37;;;13.70;;
7527;SDS011;3805;49.006;8.514;2022-12-07T17:16:47;15.93;;;13.17;;
7527;SDS011;3805;49.006;8.514;2022-12-07T17:19:35;21.10;;;13.77;;
7527;SDS011;3805;49.006;8.514;2022-12-07T17:22:24;17.60;;;13.73;;
7527;SDS011;3805;49.006;8.514;2022-12-07T17:25:13;20.43;;;13.97;;
7527;SDS011;3805;49.006;8.514;2022-12-07T17:28:03;17.97;;;14.53;;
7527;SDS011;3805;49.006;8.514;2022-12-07T17:30:51;18.77;;;14.53;;
7527;SDS011;3805;49.006;8.514;2022-12-07T17:33:40;18.87;;;14.77;;
7527;SDS011;3805;49.006;8.514;2022-12-07T17:36:29;18.47;;;14.43;;
7527;SDS011;3805;49.006;8.514;2022-12-07T17:39:19;20.40;;;14.97;;